Time;durP1;ratioP1;P1;durP2;ratioP2;P2;SDS_P1;SDS_P2;PMS_P1;PMS_P2;Temp;Humidity;BMP_temperature;BMP_pressure;BME280_temperature;BME280_humidity;BME280_pressure;Samples;Min_cycle;Max_cycle;Signal;HPM_P1;HPM_P2
2022/03/10 00:00:05;;;;;;;0.90;0.90;;;0.70;99.90;;;;;;4935540;29;20024;-74
2022/03/10 00:02:31;;;;;;;2.47;1.00;;;0.70;99.90;;;;;;4935321;29;20124;-74
2022/03/10 00:04:56;;;;;;;1.13;1.10;;;0.70;99.90;;;;;;4935429;29;20027;-71
2022/03/10 00:07:22;;;;;;;1.70;1.10;;;0.70;99.90;;;;;;4935214;29;20390;-74
2022/03/10 00:09:48;;;;;;;0.90;0.90;;;0.70;99.90;;;;;;4935189;29;20357;-75
2022/03/10 00:12:14;;;;;;;1.20;1.10;;;0.70;99.90;;;;;;4934859;29;20028;-75
2022/03/10 00:14:39;;;;;;;1.40;1.13;;;0.70;99.90;;;;;;4935019;29;20065;-75
2022/03/10 00:17:05;;;;;;;1.27;0.80;;;0.70;99.90;;;;;;4934951;29;20031;-74
2022/03/10 00:19:31;;;;;;;1.10;1.00;;;0.70;99.90;;;;;;4934753;29;20036;-74
2022/03/10 00:21:57;;;;;;;1.10;0.90;;;0.70;99.90;;;;;;4935115;29;20028;-74
2022/03/10 00:24:22;;;;;;;2.25;0.98;;;0.70;99.90;;;;;;4934907;29;20387;-74
2022/03/10 00:26:48;;;;;;;1.20;1.00;;;0.70;99.90;;;;;;4934993;29;20035;-74
2022/03/10 00:29:14;;;;;;;2.25;1.35;;;0.70;99.90;;;;;;4934985;29;20031;-74
2022/03/10 00:31:40;;;;;;;1.25;1.00;;;0.80;99.90;;;;;;4934794;29;20024;-74
2022/03/10 00:34:06;;;;;;;1.10;0.95;;;0.80;99.90;;;;;;4934987;29;20499;-74
2022/03/10 00:36:32;;;;;;;1.63;1.10;;;0.80;99.90;;;;;;4934729;29;20034;-74
2022/03/10 00:38:58;;;;;;;0.85;0.85;;;0.80;99.90;;;;;;4934651;29;20059;-75
2022/03/10 00:41:24;;;;;;;1.10;1.00;;;0.80;99.90;;;;;;4934770;29;20036;-74
2022/03/10 00:43:49;;;;;;;1.35;1.10;;;0.80;99.90;;;;;;4934561;29;20059;-74
2022/03/10 00:46:15;;;;;;;1.55;1.10;;;0.80;99.90;;;;;;4934725;29;20032;-75
2022/03/10 00:48:41;;;;;;;1.17;1.08;;;0.90;99.90;;;;;;4934813;29;20106;-75
2022/03/10 00:51:07;;;;;;;1.20;1.10;;;0.80;99.90;;;;;;4934568;29;20472;-75
2022/03/10 00:53:33;;;;;;;2.08;1.00;;;0.80;99.90;;;;;;4934372;29;20048;-75
2022/03/10 00:55:59;;;;;;;1.10;1.00;;;0.80;99.90;;;;;;4934619;29;20040;-74
2022/03/10 00:58:25;;;;;;;1.50;1.08;;;0.90;99.90;;;;;;4934382;29;20075;-77
2022/03/10 01:00:54;;;;;;;1.63;1.10;;;0.90;99.90;;;;;;4934498;29;20031;-77
2022/03/10 01:03:20;;;;;;;1.10;1.00;;;0.90;99.90;;;;;;4934633;29;20381;-77
2022/03/10 01:05:46;;;;;;;1.48;1.38;;;0.90;99.90;;;;;;4934767;29;20079;-77
2022/03/10 01:08:13;;;;;;;1.85;1.08;;;0.90;99.90;;;;;;4934465;29;20119;-75
2022/03/10 01:10:39;;;;;;;1.15;1.00;;;1.00;99.90;;;;;;4934625;29;20031;-76
2022/03/10 01:13:12;;;;;;;3.45;1.20;;;1.00;99.90;;;;;;4934416;29;20042;-76
2022/03/10 01:15:38;;;;;;;1.20;1.08;;;1.00;99.90;;;;;;4934436;29;20031;-77
2022/03/10 01:18:04;;;;;;;3.88;1.30;;;1.00;99.90;;;;;;4934400;29;20020;-77
2022/03/10 01:20:30;;;;;;;1.25;1.13;;;1.10;99.90;;;;;;4934231;29;20087;-77
2022/03/10 01:22:56;;;;;;;2.13;1.30;;;1.10;99.90;;;;;;4934239;29;20091;-77
2022/03/10 01:25:21;;;;;;;1.42;1.33;;;1.10;99.90;;;;;;4937317;29;20023;-77
2022/03/10 01:27:48;;;;;;;2.65;1.30;;;1.10;99.90;;;;;;4937763;29;20472;-77
2022/03/10 01:30:14;;;;;;;2.05;1.42;;;1.10;99.90;;;;;;4934545;29;20027;-77
2022/03/10 01:32:40;;;;;;;1.98;1.20;;;1.20;99.90;;;;;;4934109;29;20039;-77
2022/03/10 01:35:06;;;;;;;1.55;1.25;;;1.10;99.90;;;;;;4934208;29;20024;-77
2022/03/10 01:37:36;;;;;;;2.28;1.27;;;1.10;99.90;;;;;;4933901;29;20135;-75
2022/03/10 01:40:06;;;;;;;1.83;1.45;;;1.10;99.90;;;;;;4934948;29;20031;-74
2022/03/10 01:42:32;;;;;;;5.53;1.60;;;1.10;99.90;;;;;;4937478;29;20036;-74
2022/03/10 01:44:58;;;;;;;2.08;1.50;;;1.10;99.90;;;;;;4937831;29;20035;-75
2022/03/10 01:47:23;;;;;;;1.77;1.40;;;1.20;99.90;;;;;;4937392;29;20023;-75
2022/03/10 01:49:49;;;;;;;1.50;1.40;;;1.20;99.90;;;;;;4937500;29;20032;-74
2022/03/10 01:52:15;;;;;;;1.73;1.38;;;1.20;99.90;;;;;;4937630;29;20050;-74
2022/03/10 01:54:42;;;;;;;2.75;1.70;;;1.20;99.90;;;;;;4937632;29;20369;-74
2022/03/10 01:57:09;;;;;;;1.40;1.30;;;1.20;99.90;;;;;;4937678;29;20114;-74
2022/03/10 01:59:38;;;;;;;4.20;1.60;;;1.20;99.90;;;;;;4937242;29;20063;-74
2022/03/10 02:02:03;;;;;;;1.52;1.40;;;1.20;99.90;;;;;;4937334;29;20484;-74
2022/03/10 02:04:29;;;;;;;3.40;1.63;;;1.20;99.90;;;;;;4937447;29;20066;-74
2022/03/10 02:06:55;;;;;;;2.85;1.67;;;1.20;99.90;;;;;;4937478;29;20098;-74
2022/03/10 02:12:07;;;;;;;2.92;1.48;;;1.20;99.90;;;;;;4937340;29;20130;-74
2022/03/10 02:17:19;;;;;;;1.95;1.38;;;1.10;99.90;;;;;;4937317;29;20027;-75
2022/03/10 02:19:46;;;;;;;1.67;1.42;;;1.20;99.90;;;;;;4937144;29;20498;-74
2022/03/10 02:22:13;;;;;;;2.08;1.60;;;1.20;99.90;;;;;;4936991;29;20453;-75
2022/03/10 02:56:08;;;;;;;2.42;1.60;;;1.20;99.90;;;;;;4935756;29;20052;-74
2022/03/10 02:58:34;;;;;;;2.03;1.80;;;1.10;99.90;;;;;;4936260;29;20425;-74
2022/03/10 03:01:00;;;;;;;5.05;1.65;;;1.20;99.90;;;;;;4936263;29;20550;-74
2022/03/10 03:37:05;;;;;;;3.15;1.58;;;1.00;99.90;;;;;;5987129;23;20255;-73
2022/03/10 03:39:31;;;;;;;1.75;1.63;;;1.00;99.90;;;;;;4933209;28;20047;-73
2022/03/10 03:41:57;;;;;;;3.47;1.95;;;1.00;99.90;;;;;;4935481;29;20402;-73
2022/03/10 03:44:23;;;;;;;4.00;1.75;;;1.00;99.90;;;;;;4935654;29;20110;-76
2022/03/10 03:46:48;;;;;;;2.30;1.77;;;1.00;99.90;;;;;;4935578;29;20387;-76
2022/03/10 03:49:14;;;;;;;2.92;1.92;;;1.00;99.90;;;;;;4935601;29;20038;-76
2022/03/10 03:51:40;;;;;;;2.25;1.50;;;0.90;99.90;;;;;;4935218;29;20051;-74
2022/03/10 03:54:07;;;;;;;3.30;1.80;;;0.90;99.90;;;;;;4935218;29;20075;-73
2022/03/10 03:56:34;;;;;;;2.67;1.90;;;0.80;99.90;;;;;;4935435;29;20040;-73
2022/03/10 03:59:00;;;;;;;2.00;1.60;;;0.80;99.90;;;;;;4935410;29;20035;-74
2022/03/10 04:01:26;;;;;;;3.15;1.67;;;0.70;99.90;;;;;;4935099;29;20071;-74
2022/03/10 04:03:51;;;;;;;2.28;1.60;;;0.70;99.90;;;;;;4934845;29;20052;-74
2022/03/10 04:06:17;;;;;;;3.13;1.70;;;0.70;99.90;;;;;;4935132;29;20091;-74
2022/03/10 04:08:44;;;;;;;5.75;2.25;;;0.70;99.90;;;;;;4934925;29;20099;-74
2022/03/10 04:11:09;;;;;;;3.05;2.22;;;0.70;99.90;;;;;;4935370;29;20038;-74
2022/03/10 04:13:35;;;;;;;3.90;2.33;;;0.70;99.90;;;;;;4934710;29;20047;-74
2022/03/10 04:16:01;;;;;;;5.82;2.05;;;0.60;99.90;;;;;;4934935;29;20024;-74
2022/03/10 04:18:26;;;;;;;4.90;2.20;;;0.60;99.90;;;;;;4935132;29;20036;-74
2022/03/10 04:20:52;;;;;;;5.10;2.47;;;0.60;99.90;;;;;;4934735;29;20476;-74
2022/03/10 04:23:18;;;;;;;3.92;2.20;;;0.50;99.90;;;;;;4934814;29;20063;-74
2022/03/10 04:25:44;;;;;;;2.92;2.00;;;0.50;99.90;;;;;;4934677;29;20032;-73
2022/03/10 04:28:10;;;;;;;2.85;2.20;;;0.50;99.90;;;;;;4935012;29;20035;-75
2022/03/10 04:30:38;;;;;;;3.60;2.20;;;0.50;99.90;;;;;;4935123;29;20043;-77
2022/03/10 04:33:04;;;;;;;3.88;2.25;;;0.50;99.90;;;;;;4934774;29;20019;-74
2022/03/10 04:35:29;;;;;;;5.97;2.10;;;0.40;99.90;;;;;;4935042;29;20063;-75
2022/03/10 04:37:56;;;;;;;3.58;2.20;;;0.40;99.90;;;;;;4934453;29;20047;-74
2022/03/10 04:40:22;;;;;;;3.55;2.38;;;0.40;99.90;;;;;;4934864;29;20032;-74
2022/03/10 04:42:49;;;;;;;4.90;2.22;;;0.40;99.90;;;;;;4934691;29;20032;-74
2022/03/10 04:45:15;;;;;;;3.95;2.13;;;0.40;99.90;;;;;;4935217;29;20028;-74
2022/03/10 04:47:41;;;;;;;2.88;2.47;;;0.30;99.90;;;;;;4934668;29;20398;-74
2022/03/10 04:50:10;;;;;;;2.75;2.20;;;0.30;99.90;;;;;;4935014;29;20050;-74
2022/03/10 04:52:36;;;;;;;2.42;1.80;;;0.30;99.90;;;;;;4934457;29;20495;-76
2022/03/10 04:55:02;;;;;;;3.85;2.50;;;0.30;99.90;;;;;;4934883;29;20036;-76
2022/03/10 04:57:27;;;;;;;2.40;1.95;;;0.30;99.90;;;;;;4934535;29;20435;-76
2022/03/10 04:59:53;;;;;;;3.97;2.60;;;0.20;99.90;;;;;;4934668;29;20347;-75
2022/03/10 05:02:19;;;;;;;3.78;2.30;;;0.30;99.90;;;;;;4934713;29;20051;-75
2022/03/10 05:04:45;;;;;;;3.92;2.28;;;0.20;99.90;;;;;;4934353;29;20039;-75
2022/03/10 05:07:11;;;;;;;4.40;2.42;;;0.20;99.90;;;;;;4934694;29;20027;-75
2022/03/10 05:09:37;;;;;;;2.85;2.15;;;0.30;99.90;;;;;;4934460;29;20076;-75
2022/03/10 05:12:03;;;;;;;4.30;2.53;;;0.20;99.90;;;;;;4934411;29;20486;-74
2022/03/10 05:14:29;;;;;;;4.20;2.72;;;0.20;99.90;;;;;;4935862;29;20058;-75
2022/03/10 05:16:55;;;;;;;2.22;2.03;;;0.30;99.90;;;;;;4938230;29;20475;-75
2022/03/10 05:19:20;;;;;;;2.60;2.40;;;0.30;99.90;;;;;;4938021;29;20023;-75
2022/03/10 05:21:46;;;;;;;3.92;2.50;;;0.30;99.90;;;;;;4937783;29;20020;-75
2022/03/10 05:24:12;;;;;;;3.03;1.92;;;0.40;99.90;;;;;;4938141;29;20035;-75
2022/03/10 05:26:38;;;;;;;4.68;2.40;;;0.40;99.90;;;;;;4937626;29;20031;-76
2022/03/10 05:29:04;;;;;;;3.90;2.53;;;0.40;99.90;;;;;;4937576;29;20028;-75
2022/03/10 05:31:30;;;;;;;4.07;2.67;;;0.40;99.90;;;;;;4938071;29;20129;-73
2022/03/10 05:33:56;;;;;;;3.13;2.53;;;0.40;99.90;;;;;;4937407;29;20503;-70
2022/03/10 05:36:22;;;;;;;5.30;2.97;;;0.40;99.90;;;;;;4937821;29;20031;-67
2022/03/10 05:38:48;;;;;;;4.45;2.80;;;0.30;99.90;;;;;;4937145;29;20411;-72
2022/03/10 05:41:14;;;;;;;3.92;3.28;;;0.40;99.90;;;;;;4937626;29;20082;-74
2022/03/10 05:43:40;;;;;;;3.72;2.60;;;0.60;99.90;;;;;;4937287;29;20491;-75
2022/03/10 05:46:05;;;;;;;3.42;2.47;;;0.60;99.90;;;;;;4947879;29;20188;-76
2022/03/10 05:48:31;;;;;;;3.03;2.55;;;0.60;99.90;;;;;;4956128;28;20102;-73
2022/03/10 05:50:58;;;;;;;3.65;2.08;;;0.50;99.90;;;;;;4953355;28;20027;-72
2022/03/10 05:53:24;;;;;;;6.55;3.45;;;0.50;99.90;;;;;;4955803;28;20102;-71
2022/03/10 05:55:49;;;;;;;5.75;2.85;;;0.50;99.90;;;;;;4955587;28;20446;-69
2022/03/10 05:58:15;;;;;;;6.00;3.03;;;0.60;99.90;;;;;;4955553;29;20027;-69
2022/03/10 06:00:41;;;;;;;4.13;2.70;;;0.60;99.90;;;;;;4955840;29;20019;-68
2022/03/10 06:03:07;;;;;;;4.28;2.60;;;0.60;99.90;;;;;;4955416;29;20495;-69
2022/03/10 06:05:33;;;;;;;3.25;2.40;;;0.70;99.90;;;;;;4956010;29;20027;-69
2022/03/10 06:07:59;;;;;;;3.15;2.30;;;0.70;99.90;;;;;;4951584;28;20042;-69
2022/03/10 06:10:25;;;;;;;5.07;2.28;;;0.80;99.90;;;;;;4953789;29;20024;-69
2022/03/10 06:12:51;;;;;;;3.70;2.42;;;0.90;99.90;;;;;;4952903;28;20525;-68
2022/03/10 06:15:18;;;;;;;4.82;2.50;;;1.00;99.90;;;;;;4955972;28;20118;-69
2022/03/10 06:17:44;;;;;;;3.55;2.45;;;1.00;99.90;;;;;;4955580;28;20075;-69
2022/03/10 06:20:10;;;;;;;3.70;2.75;;;1.00;99.90;;;;;;4956348;29;20078;-70
2022/03/10 06:22:37;;;;;;;3.85;2.85;;;1.00;99.90;;;;;;4956191;28;20376;-68
2022/03/10 06:25:04;;;;;;;4.80;2.63;;;1.10;99.90;;;;;;4955235;28;20051;-68
2022/03/10 06:27:30;;;;;;;4.30;2.47;;;1.20;99.90;;;;;;4955966;28;20023;-71
2022/03/10 06:29:56;;;;;;;4.57;2.40;;;1.40;99.90;;;;;;4955669;29;20030;-69
2022/03/10 06:32:24;;;;;;;4.28;2.50;;;1.40;99.90;;;;;;4956257;28;20066;-69
2022/03/10 06:34:52;;;;;;;5.10;2.70;;;1.40;99.90;;;;;;4955735;28;20039;-69
2022/03/10 06:37:18;;;;;;;4.22;2.63;;;1.50;99.90;;;;;;4955617;28;20036;-68
2022/03/10 06:39:44;;;;;;;3.85;2.63;;;1.50;99.90;;;;;;4955725;28;20039;-69
2022/03/10 06:42:10;;;;;;;4.10;2.35;;;1.50;99.90;;;;;;4955790;29;20023;-69
2022/03/10 06:44:37;;;;;;;5.38;2.97;;;1.60;99.90;;;;;;4955651;28;20115;-69
2022/03/10 06:47:07;;;;;;;5.55;2.95;;;1.60;99.90;;;;;;4955546;28;20061;-75
2022/03/10 06:49:33;;;;;;;5.82;3.13;;;1.60;99.90;;;;;;4955475;28;20042;-71
2022/03/10 06:51:59;;;;;;;5.25;2.80;;;1.60;99.90;;;;;;4955669;29;20053;-71
2022/03/10 06:54:25;;;;;;;4.75;2.90;;;1.60;99.90;;;;;;4955411;28;20479;-72
2022/03/10 06:56:51;;;;;;;3.97;2.58;;;1.60;99.90;;;;;;4954108;29;20035;-72
2022/03/10 06:59:17;;;;;;;7.43;3.15;;;1.70;99.90;;;;;;4955330;28;20467;-72
2022/03/10 07:01:42;;;;;;;4.57;2.83;;;1.70;99.90;;;;;;4955488;29;20051;-79
2022/03/10 07:04:08;;;;;;;3.53;1.70;;;1.80;99.90;;;;;;4955520;29;20023;-75
2022/03/10 07:06:34;;;;;;;6.28;3.15;;;2.00;99.90;;;;;;4955340;28;20360;-78
2022/03/10 07:08:59;;;;;;;4.10;2.33;;;2.70;99.90;;;;;;4955071;29;20118;-79
2022/03/10 07:11:25;;;;;;;5.05;3.20;;;2.40;99.90;;;;;;4954872;29;20434;-73
2022/03/10 07:13:52;;;;;;;3.47;2.53;;;2.20;99.90;;;;;;4949697;28;20427;-73
2022/03/10 07:16:18;;;;;;;20.42;8.55;;;2.00;99.90;;;;;;4955053;28;20023;-70
2022/03/10 07:18:50;;;;;;;114.03;49.95;;;2.00;99.90;;;;;;4952581;28;20478;-69
2022/03/10 07:21:20;;;;;;;34.50;16.50;;;2.00;99.90;;;;;;4952060;29;20508;-70
2022/03/10 07:23:46;;;;;;;6.53;4.03;;;2.00;99.90;;;;;;4951203;28;20031;-71
2022/03/10 07:26:12;;;;;;;12.65;6.32;;;2.00;99.90;;;;;;4948792;28;20062;-71
2022/03/10 07:28:39;;;;;;;5.88;3.95;;;2.00;99.90;;;;;;4944257;29;20066;-74
2022/03/10 07:31:05;;;;;;;9.75;6.97;;;2.00;99.90;;;;;;4947351;28;20027;-69
2022/03/10 07:33:30;;;;;;;5.95;4.07;;;2.00;99.90;;;;;;4948171;29;20131;-72
2022/03/10 07:35:56;;;;;;;7.18;3.40;;;2.10;99.90;;;;;;4954724;28;20110;-69
2022/03/10 07:38:22;;;;;;;7.05;3.50;;;2.10;99.90;;;;;;4952745;28;20051;-70
2022/03/10 07:40:48;;;;;;;5.10;3.10;;;2.10;99.90;;;;;;4954721;28;20051;-70
2022/03/10 07:43:14;;;;;;;7.18;3.33;;;2.10;99.90;;;;;;4954896;29;20055;-72
2022/03/10 07:45:39;;;;;;;11.32;4.45;;;2.10;99.90;;;;;;4954511;29;20031;-72
2022/03/10 07:48:05;;;;;;;8.13;4.20;;;2.10;99.90;;;;;;4954177;29;20024;-71
2022/03/10 07:50:31;;;;;;;8.27;3.35;;;2.10;99.90;;;;;;4954028;28;20415;-71
2022/03/10 07:52:58;;;;;;;5.40;3.20;;;2.20;99.90;;;;;;4953749;28;20027;-71
2022/03/10 07:55:24;;;;;;;4.57;3.30;;;2.20;99.90;;;;;;4954071;28;20174;-71
2022/03/10 07:57:50;;;;;;;4.60;2.70;;;2.20;99.90;;;;;;4953345;29;20118;-75
2022/03/10 08:00:16;;;;;;;5.47;3.42;;;2.20;99.90;;;;;;4953801;29;20039;-75
2022/03/10 08:02:42;;;;;;;5.93;2.97;;;2.30;99.90;;;;;;4944538;28;20034;-81
2022/03/10 08:05:09;;;;;;;7.35;3.90;;;2.30;99.90;;;;;;4953495;28;20043;-79
2022/03/10 08:07:35;;;;;;;4.63;3.30;;;2.40;99.90;;;;;;4953347;28;20035;-73
2022/03/10 08:10:04;;;;;;;5.30;3.40;;;2.40;99.90;;;;;;4949710;29;20028;-73
2022/03/10 08:12:31;;;;;;;5.85;3.40;;;2.40;99.90;;;;;;4949631;28;20018;-80
2022/03/10 08:14:57;;;;;;;10.00;3.58;;;2.50;99.90;;;;;;4949530;29;20118;-76
2022/03/10 08:17:25;;;;;;;4.70;3.13;;;3.00;99.90;;;;;;4953501;28;20035;-70
2022/03/10 08:19:51;;;;;;;5.13;3.20;;;3.10;99.90;;;;;;4952815;28;20450;-72
2022/03/10 08:22:17;;;;;;;4.57;2.83;;;3.10;99.90;;;;;;4951333;28;20034;-73
2022/03/10 08:24:44;;;;;;;4.88;2.58;;;3.30;99.90;;;;;;4938792;29;20031;-73
2022/03/10 08:27:10;;;;;;;5.00;2.60;;;3.40;99.90;;;;;;4952543;28;20035;-73
2022/03/10 08:29:36;;;;;;;5.03;2.30;;;3.40;99.90;;;;;;4948014;29;20040;-72
2022/03/10 08:32:01;;;;;;;4.22;2.65;;;3.50;99.90;;;;;;4952514;29;20419;-72
2022/03/10 08:34:27;;;;;;;5.05;3.03;;;3.70;99.90;;;;;;4952991;29;20090;-71
2022/03/10 08:36:53;;;;;;;4.07;2.58;;;3.80;99.90;;;;;;4950108;28;20038;-72
2022/03/10 08:39:18;;;;;;;3.95;2.55;;;3.80;99.90;;;;;;4953515;29;20061;-70
2022/03/10 08:41:44;;;;;;;5.03;2.67;;;3.90;99.90;;;;;;4953659;29;20023;-72
2022/03/10 08:44:12;;;;;;;4.80;2.88;;;4.20;99.90;;;;;;4953548;28;20049;-71
2022/03/10 08:46:38;;;;;;;2.92;1.90;;;4.10;99.90;;;;;;4954010;28;20037;-72
2022/03/10 08:49:04;;;;;;;3.35;2.30;;;4.10;99.90;;;;;;4954536;28;20502;-72
2022/03/10 08:51:30;;;;;;;4.30;2.33;;;4.00;99.90;;;;;;4957735;29;20059;-72
2022/03/10 08:53:56;;;;;;;4.22;2.30;;;4.00;99.90;;;;;;4957654;29;20098;-73
2022/03/10 08:56:21;;;;;;;4.32;2.03;;;4.00;99.90;;;;;;4957968;28;20023;-74
2022/03/10 08:58:47;;;;;;;10.85;2.15;;;4.20;99.90;;;;;;4957767;29;20081;-70
2022/03/10 09:01:13;;;;;;;7.47;1.98;;;6.10;99.90;;;;;;4957909;29;20434;-71
2022/03/10 09:03:38;;;;;;;4.10;2.30;;;6.80;99.90;;;;;;4957845;29;20070;-68
2022/03/10 09:06:04;;;;;;;5.43;2.40;;;6.20;99.90;;;;;;4957578;28;20105;-71
2022/03/10 09:08:32;;;;;;;3.88;2.00;;;5.70;99.90;;;;;;4957463;28;20128;-70
2022/03/10 09:10:58;;;;;;;3.08;2.10;;;5.30;99.90;;;;;;4956856;28;20046;-68
2022/03/10 09:13:24;;;;;;;4.15;2.33;;;5.10;99.90;;;;;;4954433;29;20470;-68
2022/03/10 09:15:49;;;;;;;5.00;2.05;;;4.90;99.90;;;;;;4957342;28;20490;-68
2022/03/10 09:28:21;;;;;;;4.47;2.22;;;4.90;99.90;;;;;;4942447;29;20089;-65
2022/03/10 09:30:47;;;;;;;3.20;1.90;;;4.80;99.90;;;;;;4956757;29;20031;-66
2022/03/10 09:33:12;;;;;;;4.30;2.30;;;4.80;99.90;;;;;;4953787;29;20050;-67
2022/03/10 09:35:38;;;;;;;4.28;2.00;;;4.80;99.90;;;;;;4956668;29;20024;-68
2022/03/10 09:38:04;;;;;;;3.47;1.85;;;4.80;99.90;;;;;;4956396;28;20047;-69
2022/03/10 09:40:30;;;;;;;6.28;2.80;;;4.80;99.90;;;;;;4956783;29;20027;-70
2022/03/10 09:42:56;;;;;;;6.72;2.53;;;4.80;99.90;;;;;;4956389;29;20065;-70
2022/03/10 09:45:23;;;;;;;5.18;2.30;;;4.80;99.90;;;;;;4955759;29;20364;-70
2022/03/10 09:47:49;;;;;;;5.07;2.20;;;4.90;99.90;;;;;;4956433;28;20031;-69
2022/03/10 09:50:17;;;;;;;5.80;2.90;;;4.90;99.90;;;;;;4956575;28;20035;-71
2022/03/10 09:52:44;;;;;;;3.47;2.08;;;4.90;99.90;;;;;;4956477;28;20122;-71
2022/03/10 09:55:12;;;;;;;5.22;2.10;;;5.50;99.90;;;;;;4956268;28;20039;-71
2022/03/10 09:57:39;;;;;;;3.10;1.95;;;6.10;99.90;;;;;;4956493;28;20034;-71
2022/03/10 10:00:06;;;;;;;5.18;2.22;;;5.80;99.90;;;;;;4955784;28;20038;-70
2022/03/10 10:02:31;;;;;;;4.07;2.50;;;5.50;99.90;;;;;;4955209;29;20038;-71
2022/03/10 10:04:57;;;;;;;2.38;1.75;;;5.30;99.90;;;;;;4956164;29;20035;-70
2022/03/10 10:07:29;;;;;;;2.67;1.90;;;5.20;99.90;;;;;;4956212;28;20023;-71
2022/03/10 10:09:57;;;;;;;5.53;1.88;;;6.40;99.90;;;;;;4956099;28;20058;-70
2022/03/10 10:12:30;;;;;;;2.92;2.03;;;6.50;99.90;;;;;;4955853;28;20027;-72
2022/03/10 10:14:58;;;;;;;4.03;2.03;;;6.10;99.90;;;;;;4955470;28;20043;-72
2022/03/10 10:17:32;;;;;;;4.38;2.22;;;5.70;99.90;;;;;;4954779;29;20023;-72
2022/03/10 10:19:59;;;;;;;4.63;2.40;;;5.50;99.90;;;;;;4956131;28;20031;-72
2022/03/10 10:22:27;;;;;;;4.57;2.45;;;5.40;99.90;;;;;;4955744;28;20026;-72
2022/03/10 10:25:02;;;;;;;3.65;1.90;;;5.40;99.90;;;;;;4955946;28;20078;-72
2022/03/10 10:27:32;;;;;;;4.07;2.25;;;5.30;99.90;;;;;;4956048;28;20031;-72
2022/03/10 10:30:01;;;;;;;2.70;2.35;;;5.30;99.90;;;;;;4955744;28;20027;-72
2022/03/10 10:32:36;;;;;;;3.83;2.10;;;5.30;99.90;;;;;;4955951;28;20048;-72
2022/03/10 10:35:05;;;;;;;3.60;2.45;;;5.20;99.90;;;;;;4955667;29;20525;-72
2022/03/10 10:37:31;;;;;;;2.30;1.52;;;5.20;99.90;;;;;;4955539;28;20055;-71
2022/03/10 10:39:58;;;;;;;2.53;1.70;;;5.20;99.90;;;;;;4955451;28;20089;-72
2022/03/10 10:42:36;;;;;;;4.63;2.28;;;5.20;99.90;;;;;;4955607;28;20047;-72
2022/03/10 10:45:22;;;;;;;4.38;2.15;;;5.20;99.90;;;;;;4955376;28;20479;-72
2022/03/10 10:48:18;;;;;;;3.17;2.20;;;5.20;99.90;;;;;;4955025;29;20498;-71
2022/03/10 10:50:44;;;;;;;6.13;2.58;;;5.20;99.90;;;;;;4943270;28;20039;-68
2022/03/10 10:53:30;;;;;;;6.43;2.17;;;5.20;99.90;;;;;;4955552;29;20055;-68
2022/03/10 10:55:57;;;;;;;5.28;2.00;;;5.30;99.90;;;;;;4955311;28;20027;-68
2022/03/10 10:58:25;;;;;;;3.72;1.83;;;5.20;99.90;;;;;;4955625;28;20383;-68
2022/03/10 11:00:51;;;;;;;7.72;2.17;;;5.20;99.90;;;;;;4954957;28;20102;-68
2022/03/10 11:03:28;;;;;;;7.88;2.03;;;5.20;99.90;;;;;;4955178;29;20186;-68
2022/03/10 11:05:55;;;;;;;6.47;2.00;;;5.20;99.90;;;;;;4955156;28;20046;-68
2022/03/10 11:08:22;;;;;;;3.80;1.85;;;5.30;99.90;;;;;;4954297;29;20028;-68
2022/03/10 11:10:50;;;;;;;2.97;1.73;;;5.20;99.90;;;;;;4955148;28;20030;-68
2022/03/10 11:13:15;;;;;;;2.95;1.50;;;5.30;99.90;;;;;;4954055;28;20034;-68
2022/03/10 11:15:43;;;;;;;3.25;1.73;;;5.20;99.90;;;;;;4954953;29;20039;-68
2022/03/10 11:18:11;;;;;;;5.13;2.10;;;5.20;99.90;;;;;;4954612;28;20464;-69
2022/03/10 11:20:40;;;;;;;5.20;1.90;;;5.20;99.90;;;;;;4955032;29;20031;-68
2022/03/10 11:23:20;;;;;;;3.47;1.73;;;5.20;99.90;;;;;;4954855;28;20028;-68
2022/03/10 11:25:55;;;;;;;3.40;1.30;;;5.20;99.90;;;;;;4954866;28;20490;-68
2022/03/10 11:28:25;;;;;;;4.93;1.70;;;5.20;99.90;;;;;;4954838;28;20506;-68
2022/03/10 11:31:00;;;;;;;3.70;1.42;;;5.20;99.90;;;;;;4955169;28;20383;-68
2022/03/10 11:33:34;;;;;;;3.42;1.60;;;5.20;99.90;;;;;;4954802;28;20039;-68
2022/03/10 11:36:00;;;;;;;5.88;1.75;;;5.30;99.90;;;;;;4946315;29;20025;-71
2022/03/10 11:38:56;;;;;;;2.78;1.35;;;5.30;99.90;;;;;;4935267;29;20119;-68
2022/03/10 11:41:50;;;;;;;4.13;2.20;;;5.30;99.90;;;;;;4927426;29;20500;-68
2022/03/10 11:44:22;;;;;;;4.47;2.33;;;5.30;99.90;;;;;;4935267;29;20035;-68
2022/03/10 11:46:57;;;;;;;2.50;1.73;;;5.30;99.90;;;;;;4934683;29;20027;-68
2022/03/10 11:49:27;;;;;;;5.65;1.77;;;5.30;99.90;;;;;;4935457;29;20035;-68
2022/03/10 11:51:56;;;;;;;;;;;5.30;99.90;;;;;;4935898;29;20024;-68
2022/03/10 11:54:32;;;;;;;5.57;2.03;;;5.30;99.90;;;;;;4935537;29;20009;-68
2022/03/10 11:57:08;;;;;;;4.07;1.48;;;5.30;99.90;;;;;;4935470;29;20054;-68
2022/03/10 11:59:39;;;;;;;1.60;1.40;;;5.30;99.90;;;;;;4935120;29;20383;-70
2022/03/10 12:02:07;;;;;;;4.43;2.10;;;5.30;99.90;;;;;;4946374;29;20590;-72
2022/03/10 12:04:41;;;;;;;6.70;2.00;;;5.30;99.90;;;;;;4953675;28;20022;-72
2022/03/10 12:07:15;;;;;;;3.55;1.65;;;5.40;99.90;;;;;;4954106;28;20483;-72
2022/03/10 12:09:41;;;;;;;4.32;1.77;;;5.40;99.90;;;;;;4954177;28;20474;-72
2022/03/10 12:12:14;;;;;;;1.92;1.60;;;5.40;99.90;;;;;;4954197;28;20038;-72
2022/03/10 12:14:40;;;;;;;4.05;1.90;;;5.40;99.90;;;;;;4953777;28;20035;-72
2022/03/10 12:17:25;;;;;;;1.50;1.33;;;5.40;99.90;;;;;;4953841;28;20056;-72
2022/03/10 12:20:13;;;;;;;2.05;1.45;;;5.40;99.90;;;;;;4952470;29;20031;-72
2022/03/10 12:22:39;;;;;;;1.98;1.60;;;5.40;99.90;;;;;;4953719;28;20019;-72
2022/03/10 12:25:21;;;;;;;3.17;1.70;;;5.40;99.90;;;;;;4954126;28;20394;-69
2022/03/10 12:27:55;;;;;;;5.03;1.65;;;5.40;99.90;;;;;;4954029;28;20023;-70
2022/03/10 12:30:26;;;;;;;3.90;1.42;;;5.50;99.90;;;;;;4953957;28;20088;-70
2022/03/10 12:32:54;;;;;;;2.67;1.60;;;5.80;99.90;;;;;;4954209;28;20047;-70
2022/03/10 12:35:26;;;;;;;4.68;2.25;;;5.70;99.90;;;;;;4953697;28;20024;-70
2022/03/10 12:37:52;;;;;;;1.95;1.40;;;5.60;99.90;;;;;;4953782;28;20051;-70
2022/03/10 12:40:26;;;;;;;2.78;1.58;;;5.60;99.90;;;;;;4953663;28;20032;-70
2022/03/10 12:42:57;;;;;;;3.67;1.80;;;5.50;99.90;;;;;;4953646;28;20475;-70
2022/03/10 12:45:23;;;;;;;5.30;2.10;;;5.50;99.90;;;;;;4953974;28;20379;-70
2022/03/10 12:47:58;;;;;;;6.13;2.30;;;5.40;99.90;;;;;;4953922;28;20027;-70
2022/03/10 12:50:24;;;;;;;2.83;2.00;;;5.50;99.90;;;;;;4953739;28;20403;-70
2022/03/10 12:52:50;;;;;;;7.80;2.20;;;5.50;99.90;;;;;;4953564;29;20043;-70
2022/03/10 12:55:27;;;;;;;4.70;2.30;;;5.50;99.90;;;;;;4953338;29;20042;-70
2022/03/10 12:57:57;;;;;;;4.05;1.98;;;5.50;99.90;;;;;;4953981;28;20111;-70
2022/03/10 13:00:23;;;;;;;2.47;1.10;;;5.50;99.90;;;;;;4953514;28;20028;-71
2022/03/10 13:02:49;;;;;;;3.83;1.83;;;5.70;99.90;;;;;;4953829;29;20058;-71
2022/03/10 13:05:21;;;;;;;1.90;1.40;;;6.70;99.90;;;;;;4953507;29;20086;-67
2022/03/10 13:07:47;;;;;;;3.97;1.73;;;6.60;99.90;;;;;;4953549;28;20026;-68
2022/03/10 13:10:16;;;;;;;5.25;1.80;;;6.30;99.90;;;;;;4953601;29;20027;-67
2022/03/10 13:12:44;;;;;;;6.05;1.90;;;6.20;99.90;;;;;;4953442;28;20019;-67
2022/03/10 13:15:25;;;;;;;3.10;1.65;;;6.10;99.90;;;;;;4952130;29;20199;-67
2022/03/10 13:17:52;;;;;;;4.45;1.92;;;6.00;99.90;;;;;;4942030;28;20028;-67
2022/03/10 13:20:21;;;;;;;6.15;2.30;;;5.90;99.90;;;;;;4945041;29;20019;-67
2022/03/10 13:23:12;;;;;;;6.07;2.33;;;5.90;99.90;;;;;;4952968;28;20555;-67
2022/03/10 13:25:39;;;;;;;5.40;1.67;;;5.90;99.90;;;;;;4952754;28;20027;-67
2022/03/10 13:28:12;;;;;;;3.47;1.77;;;5.90;99.90;;;;;;4952606;28;20043;-67
2022/03/10 13:30:39;;;;;;;4.43;1.65;;;5.90;99.90;;;;;;4952724;28;20063;-68
2022/03/10 13:33:07;;;;;;;2.22;1.67;;;5.80;99.90;;;;;;4952487;28;20043;-68
2022/03/10 13:35:39;;;;;;;5.20;1.90;;;5.80;99.90;;;;;;4953913;28;20026;-68
2022/03/10 13:38:05;;;;;;;5.82;1.80;;;5.80;99.90;;;;;;4955821;28;20110;-67
2022/03/10 13:40:34;;;;;;;5.10;1.67;;;5.80;99.90;;;;;;4956146;28;20023;-67
2022/03/10 13:43:00;;;;;;;2.22;1.35;;;5.80;99.90;;;;;;4956115;28;20036;-67
2022/03/10 13:45:27;;;;;;;3.00;1.60;;;5.80;99.90;;;;;;4956304;28;20082;-68
2022/03/10 13:48:05;;;;;;;4.20;1.70;;;5.80;99.90;;;;;;4955973;29;20070;-67
2022/03/10 13:50:35;;;;;;;3.78;1.80;;;5.80;99.90;;;;;;4954829;29;20028;-67
2022/03/10 13:53:05;;;;;;;;;;;5.80;99.90;;;;;;4956207;28;20372;-68
2022/03/10 13:55:45;;;;;;;2.90;1.77;;;5.90;99.90;;;;;;4955951;28;19910;-67
2022/03/10 13:58:11;;;;;;;;;;;5.80;99.90;;;;;;4956103;28;20031;-68
2022/03/10 14:00:40;;;;;;;4.68;2.28;;;5.80;99.90;;;;;;4955717;28;19906;-67
2022/03/10 14:03:15;;;;;;;1.80;1.55;;;5.80;99.90;;;;;;4955463;28;20542;-68
2022/03/10 14:05:47;;;;;;;4.97;1.60;;;5.70;99.90;;;;;;4955686;28;20057;-67
2022/03/10 14:08:13;;;;;;;4.03;1.80;;;5.70;99.90;;;;;;4955285;28;20118;-67
2022/03/10 14:10:42;;;;;;;5.03;1.73;;;5.70;99.90;;;;;;4955606;29;20113;-67
2022/03/10 14:13:09;;;;;;;4.47;1.90;;;5.70;99.90;;;;;;4955690;28;20028;-67
2022/03/10 14:15:38;;;;;;;5.15;2.25;;;5.70;99.90;;;;;;4955494;28;20399;-67
2022/03/10 14:18:11;;;;;;;5.03;1.40;;;5.70;99.90;;;;;;4955404;28;20059;-68
2022/03/10 14:20:47;;;;;;;3.00;2.00;;;5.60;99.90;;;;;;4955336;28;20031;-68